Time;durP1;ratioP1;P1;durP2;ratioP2;P2;SDS_P1;SDS_P2;PMS_P1;PMS_P2;Temp;Humidity;BMP_temperature;BMP_pressure;BME280_temperature;BME280_humidity;BME280_pressure;Samples;Min_cycle;Max_cycle;Signal;HPM_P1;HPM_P2
2023/03/20 00:01:17;;;;;;;7.20;3.17;;;7.50;99.90;;;;;;4946966;28;20065;-91
2023/03/20 00:03:43;;;;;;;9.65;3.13;;;7.50;99.90;;;;;;4948060;28;20113;-92
2023/03/20 00:06:22;;;;;;;8.60;2.47;;;7.50;99.90;;;;;;4965591;28;20090;-91
2023/03/20 00:08:51;;;;;;;8.25;2.67;;;7.40;99.90;;;;;;4953697;28;20023;-91
2023/03/20 00:11:29;;;;;;;5.13;3.78;;;7.50;99.90;;;;;;4944105;28;20112;-92
2023/03/20 00:14:03;;;;;;;10.38;3.53;;;7.40;99.90;;;;;;4948374;28;20068;-91
2023/03/20 00:16:35;;;;;;;6.03;3.10;;;7.40;99.90;;;;;;4969796;28;20036;-91
2023/03/20 00:19:02;;;;;;;5.28;2.85;;;7.40;99.90;;;;;;4952851;28;20097;-92
2023/03/20 00:21:28;;;;;;;8.30;3.10;;;7.40;99.90;;;;;;4956716;28;20023;-92
2023/03/20 00:23:54;;;;;;;5.65;2.50;;;7.40;99.90;;;;;;4966470;28;20026;-91
2023/03/20 00:26:23;;;;;;;3.65;2.45;;;7.40;99.90;;;;;;4994061;28;20110;-91
2023/03/20 00:28:50;;;;;;;2.75;2.28;;;7.40;99.90;;;;;;4973956;28;20035;-93
2023/03/20 00:31:27;;;;;;;2.47;1.75;;;7.40;99.90;;;;;;4967104;28;20034;-92
2023/03/20 00:33:59;;;;;;;6.85;2.25;;;7.40;99.90;;;;;;4947361;28;20050;-91
2023/03/20 00:36:25;;;;;;;3.70;2.55;;;7.40;99.90;;;;;;4968478;28;20069;-89
2023/03/20 00:38:52;;;;;;;4.93;2.42;;;7.30;99.90;;;;;;4986713;28;20167;-90
2023/03/20 00:41:38;;;;;;;9.23;2.67;;;7.30;99.90;;;;;;4973134;28;20027;-92
2023/03/20 00:44:18;;;;;;;5.60;2.35;;;7.20;99.90;;;;;;4973276;28;20038;-90
2023/03/20 00:46:50;;;;;;;3.03;2.13;;;7.20;99.90;;;;;;4973470;28;20098;-91
2023/03/20 00:49:19;;;;;;;3.95;2.40;;;7.20;99.90;;;;;;4960801;28;20278;-92
2023/03/20 00:51:45;;;;;;;5.25;2.70;;;7.20;99.90;;;;;;4958465;28;20525;-92
2023/03/20 00:54:16;;;;;;;4.55;2.78;;;7.20;99.90;;;;;;4969220;28;20078;-90
2023/03/20 00:57:03;;;;;;;1.98;1.75;;;7.20;99.90;;;;;;4941888;28;20030;-92
2023/03/20 00:59:33;;;;;;;5.05;2.28;;;7.30;99.90;;;;;;4933236;28;20062;-91
2023/03/20 01:02:01;;;;;;;2.92;2.00;;;7.30;99.90;;;;;;4949146;28;20536;-89
2023/03/20 01:04:37;;;;;;;4.28;2.00;;;7.30;99.90;;;;;;4955883;28;20059;-90
2023/03/20 01:07:03;;;;;;;4.05;2.08;;;7.30;99.90;;;;;;4978728;28;20023;-91
2023/03/20 01:09:29;;;;;;;4.57;1.80;;;7.30;99.90;;;;;;4941654;28;20034;-90
2023/03/20 01:11:55;;;;;;;3.03;1.45;;;7.30;99.90;;;;;;4947621;28;20019;-90
2023/03/20 01:14:21;;;;;;;1.80;1.42;;;7.30;99.90;;;;;;4944381;28;20048;-90
2023/03/20 01:16:46;;;;;;;2.55;1.42;;;7.20;99.90;;;;;;4959596;28;20026;-90
2023/03/20 01:19:15;;;;;;;3.72;1.30;;;7.30;99.90;;;;;;4953565;29;20046;-90
2023/03/20 01:21:41;;;;;;;2.70;1.30;;;7.30;99.90;;;;;;4954482;28;20029;-89
2023/03/20 01:24:07;;;;;;;2.50;1.63;;;7.30;99.90;;;;;;4953658;28;20031;-90
2023/03/20 01:26:42;;;;;;;3.75;1.20;;;7.30;99.90;;;;;;4956949;28;20038;-90
2023/03/20 01:29:20;;;;;;;3.65;1.10;;;7.30;99.90;;;;;;4957195;28;20046;-90
2023/03/20 01:31:46;;;;;;;3.17;1.27;;;7.20;99.90;;;;;;4946711;28;20023;-90
2023/03/20 01:34:12;;;;;;;2.25;1.20;;;7.20;99.90;;;;;;4947961;28;20046;-90
2023/03/20 01:36:38;;;;;;;1.33;1.15;;;7.20;99.90;;;;;;4961059;28;20018;-91
2023/03/20 01:39:05;;;;;;;1.15;1.00;;;7.20;99.90;;;;;;4969534;28;20102;-89
2023/03/20 01:41:31;;;;;;;3.22;1.40;;;7.20;99.90;;;;;;4974154;28;20011;-89
2023/03/20 01:44:00;;;;;;;1.50;0.90;;;7.20;99.90;;;;;;4965337;28;20035;-91
2023/03/20 01:46:29;;;;;;;1.45;0.88;;;7.20;99.90;;;;;;4955438;28;20053;-89
2023/03/20 01:49:06;;;;;;;1.40;0.82;;;7.20;99.90;;;;;;4956634;28;20077;-91
2023/03/20 01:51:32;;;;;;;4.32;0.70;;;7.20;99.90;;;;;;4960985;28;20046;-91
2023/03/20 01:54:11;;;;;;;1.90;1.00;;;7.20;99.90;;;;;;4953447;28;20098;-92
2023/03/20 01:56:42;;;;;;;0.70;0.70;;;7.30;99.90;;;;;;4953886;28;20015;-90
2023/03/20 01:59:43;;;;;;;2.60;0.80;;;7.30;99.90;;;;;;4961528;28;20428;-90
2023/03/20 02:02:12;;;;;;;2.53;0.77;;;7.20;99.90;;;;;;4943227;28;20035;-91
2023/03/20 02:04:41;;;;;;;2.15;0.80;;;7.30;99.90;;;;;;4974880;28;20493;-92
2023/03/20 02:07:10;;;;;;;4.78;1.27;;;7.20;99.90;;;;;;4960960;28;20061;-92
2023/03/20 02:09:36;;;;;;;2.47;1.00;;;7.20;99.90;;;;;;4960517;28;20057;-91
2023/03/20 02:12:02;;;;;;;1.42;0.80;;;7.20;99.90;;;;;;4958104;28;20031;-91
2023/03/20 02:14:28;;;;;;;4.13;1.30;;;7.20;99.90;;;;;;4952227;28;20523;-91
2023/03/20 02:16:54;;;;;;;2.92;1.50;;;7.20;99.90;;;;;;4961371;28;20019;-90
2023/03/20 02:19:34;;;;;;;2.58;0.90;;;7.20;99.90;;;;;;4970551;28;20034;-91
2023/03/20 02:22:08;;;;;;;2.30;1.90;;;7.20;99.90;;;;;;4972407;28;20030;-90
2023/03/20 02:24:52;;;;;;;3.42;1.10;;;7.20;99.90;;;;;;4969607;28;20034;-90
2023/03/20 02:27:26;;;;;;;3.33;1.15;;;7.20;99.90;;;;;;4958502;28;20493;-91
2023/03/20 02:30:13;;;;;;;2.88;1.90;;;7.20;99.90;;;;;;4979340;28;20024;-90
2023/03/20 02:33:14;;;;;;;4.68;1.50;;;7.20;99.90;;;;;;4964766;28;20043;-90
2023/03/20 02:36:03;;;;;;;2.78;1.70;;;7.20;99.90;;;;;;4929734;29;20378;-91
2023/03/20 02:38:39;;;;;;;2.10;1.50;;;7.20;99.90;;;;;;4951472;29;20043;-92
2023/03/20 02:41:22;;;;;;;5.80;1.70;;;7.20;99.90;;;;;;4976512;28;20039;-90
2023/03/20 02:44:18;;;;;;;5.85;2.30;;;7.20;99.90;;;;;;4949012;28;20031;-91
2023/03/20 02:47:04;;;;;;;4.07;1.48;;;7.20;99.90;;;;;;4943893;29;20497;-91
2023/03/20 02:50:14;;;;;;;1.60;1.40;;;7.20;99.90;;;;;;4960804;28;20019;-91
2023/03/20 02:52:58;;;;;;;3.10;1.42;;;7.20;99.90;;;;;;4944394;28;20053;-91
2023/03/20 02:55:34;;;;;;;3.45;1.80;;;7.20;99.90;;;;;;4971552;28;20035;-91
2023/03/20 02:58:22;;;;;;;3.97;1.40;;;7.20;99.90;;;;;;4978393;28;20058;-90
2023/03/20 03:01:03;;;;;;;3.70;1.63;;;7.20;99.90;;;;;;4957278;28;20536;-91
2023/03/20 03:04:03;;;;;;;2.55;1.30;;;7.20;99.90;;;;;;4966443;28;20248;-91
2023/03/20 03:06:31;;;;;;;2.38;1.23;;;7.20;99.90;;;;;;4961562;28;20029;-91
2023/03/20 03:09:10;;;;;;;3.85;1.60;;;7.20;99.90;;;;;;4966052;28;20473;-92
2023/03/20 03:11:42;;;;;;;4.60;1.67;;;7.20;99.90;;;;;;4975278;28;20018;-91
2023/03/20 03:14:20;;;;;;;3.15;1.80;;;7.20;99.90;;;;;;4964503;28;20062;-90
2023/03/20 03:16:49;;;;;;;5.88;2.47;;;7.10;99.90;;;;;;4961002;28;20026;-90
2023/03/20 03:19:20;;;;;;;4.35;2.28;;;7.20;99.90;;;;;;4948415;28;20461;-91
2023/03/20 03:21:47;;;;;;;4.28;1.88;;;7.20;99.90;;;;;;4950300;28;20046;-90
2023/03/20 03:24:28;;;;;;;7.28;2.30;;;7.20;99.90;;;;;;4960532;28;20556;-89
2023/03/20 03:26:58;;;;;;;3.00;2.10;;;7.20;99.90;;;;;;4948939;28;20019;-88
2023/03/20 03:29:26;;;;;;;7.40;2.67;;;7.20;99.90;;;;;;4960478;28;20031;-89
2023/03/20 03:31:53;;;;;;;4.85;2.45;;;7.20;99.90;;;;;;4960214;28;20038;-88
2023/03/20 03:34:22;;;;;;;4.20;2.28;;;7.20;99.90;;;;;;4959995;28;20547;-89
2023/03/20 03:37:39;;;;;;;4.35;2.30;;;7.20;99.90;;;;;;4969658;28;20092;-89
2023/03/20 03:40:16;;;;;;;7.78;2.38;;;7.20;99.90;;;;;;4934412;29;20035;-90
2023/03/20 03:42:59;;;;;;;3.50;2.15;;;7.20;99.90;;;;;;4954681;29;20043;-90
2023/03/20 03:45:27;;;;;;;2.50;1.40;;;7.20;99.90;;;;;;4931347;29;20031;-89
2023/03/20 03:48:15;;;;;;;4.20;2.25;;;7.20;99.90;;;;;;4939439;29;20067;-90
2023/03/20 03:50:47;;;;;;;5.05;2.25;;;7.20;99.90;;;;;;4961594;28;20050;-90
2023/03/20 03:53:17;;;;;;;3.47;1.63;;;7.20;99.90;;;;;;4928750;29;20069;-90
2023/03/20 03:55:49;;;;;;;3.47;1.53;;;7.20;99.90;;;;;;4950235;28;20023;-89
2023/03/20 03:58:26;;;;;;;4.90;1.92;;;7.30;99.90;;;;;;4954900;28;20066;-89
2023/03/20 04:00:55;;;;;;;3.25;1.70;;;7.20;99.90;;;;;;4940480;28;20541;-90
2023/03/20 04:03:25;;;;;;;6.50;2.83;;;7.20;99.90;;;;;;4956348;28;20031;-90
2023/03/20 04:05:53;;;;;;;;;;;7.20;99.90;;;;;;4953462;28;20027;-90
2023/03/20 04:08:19;;;;;;;3.22;1.35;;;7.20;99.90;;;;;;4953874;28;19992;-90
2023/03/20 04:10:45;;;;;;;3.33;1.73;;;7.20;99.90;;;;;;4941836;29;20087;-89
2023/03/20 04:13:10;;;;;;;2.35;1.45;;;7.20;99.90;;;;;;4954759;28;20042;-89
2023/03/20 04:15:37;;;;;;;3.90;1.35;;;7.30;99.90;;;;;;4948525;28;20047;-90
2023/03/20 04:18:03;;;;;;;6.13;1.55;;;7.20;99.90;;;;;;4972273;28;20026;-90
2023/03/20 04:20:29;;;;;;;3.97;1.13;;;7.30;99.90;;;;;;4992145;28;20022;-91
2023/03/20 04:22:54;;;;;;;4.03;1.50;;;7.30;99.90;;;;;;4970651;28;20081;-89
2023/03/20 04:25:25;;;;;;;3.42;1.25;;;7.30;99.90;;;;;;4959909;28;20034;-89
2023/03/20 04:27:51;;;;;;;2.90;1.27;;;7.30;99.90;;;;;;4957150;28;20046;-89
2023/03/20 04:30:17;;;;;;;3.67;1.20;;;7.30;99.90;;;;;;4962441;28;20077;-90
2023/03/20 04:32:43;;;;;;;4.18;1.65;;;7.30;99.90;;;;;;4948935;28;20030;-90
2023/03/20 04:35:09;;;;;;;2.55;1.60;;;7.30;99.90;;;;;;4953430;28;20122;-90
2023/03/20 04:37:35;;;;;;;5.25;1.60;;;7.30;99.90;;;;;;4969205;28;20045;-89
2023/03/20 04:40:01;;;;;;;3.60;1.95;;;7.30;99.90;;;;;;4951080;28;20485;-89
2023/03/20 04:42:26;;;;;;;3.78;2.13;;;7.40;99.90;;;;;;4958001;28;20029;-89
2023/03/20 04:44:52;;;;;;;5.50;2.67;;;7.40;99.90;;;;;;4965176;28;20030;-89
2023/03/20 04:47:18;;;;;;;2.40;1.60;;;7.40;99.90;;;;;;4950917;28;20101;-90
2023/03/20 04:49:43;;;;;;;3.90;1.70;;;7.40;99.90;;;;;;4956973;28;20027;-90
2023/03/20 04:52:09;;;;;;;6.05;2.13;;;7.40;99.90;;;;;;4954259;28;20023;-89
2023/03/20 04:54:34;;;;;;;4.45;2.20;;;7.40;99.90;;;;;;4948919;28;20062;-89
2023/03/20 04:57:00;;;;;;;6.60;2.35;;;7.40;99.90;;;;;;4952955;28;20023;-91
2023/03/20 04:59:26;;;;;;;4.35;2.10;;;7.40;99.90;;;;;;4957395;28;20046;-89
2023/03/20 05:01:52;;;;;;;4.88;2.20;;;7.40;99.90;;;;;;4943314;28;20098;-89
2023/03/20 05:04:17;;;;;;;5.38;2.30;;;7.40;99.90;;;;;;4957543;28;20464;-90
2023/03/20 05:06:47;;;;;;;4.13;1.80;;;7.40;99.90;;;;;;4956424;28;20018;-89
2023/03/20 05:09:12;;;;;;;1.48;1.35;;;7.40;99.90;;;;;;4955175;28;20049;-91
2023/03/20 05:11:38;;;;;;;4.18;1.60;;;7.40;99.90;;;;;;4957520;28;20066;-90
2023/03/20 05:14:05;;;;;;;2.88;1.40;;;7.40;99.90;;;;;;4957274;28;20061;-90
2023/03/20 05:16:31;;;;;;;8.57;1.85;;;7.50;99.90;;;;;;4957408;28;20043;-90
2023/03/20 05:18:57;;;;;;;2.78;1.95;;;7.40;99.90;;;;;;4957748;28;20392;-90
2023/03/20 05:21:22;;;;;;;5.18;1.52;;;7.40;99.90;;;;;;4958262;28;20117;-90
2023/03/20 05:23:48;;;;;;;3.63;1.80;;;7.50;99.90;;;;;;4957957;28;20483;-90
2023/03/20 05:26:14;;;;;;;3.40;1.90;;;7.50;99.90;;;;;;4957800;28;20469;-89
2023/03/20 05:28:39;;;;;;;3.22;1.77;;;7.50;99.90;;;;;;4957824;28;20031;-89
2023/03/20 05:31:05;;;;;;;4.75;2.17;;;7.50;99.90;;;;;;4957788;28;20608;-91
2023/03/20 05:33:31;;;;;;;6.00;2.03;;;7.60;99.90;;;;;;4956981;28;20511;-90
2023/03/20 05:35:56;;;;;;;4.15;2.20;;;7.60;99.90;;;;;;4957371;28;20030;-90
2023/03/20 05:38:22;;;;;;;6.18;2.00;;;7.60;99.90;;;;;;4957254;28;20046;-90
2023/03/20 05:40:48;;;;;;;3.15;1.95;;;7.60;99.90;;;;;;4957030;28;20019;-90
2023/03/20 05:43:14;;;;;;;5.35;2.38;;;7.60;99.90;;;;;;4956986;28;20033;-90
2023/03/20 05:45:41;;;;;;;3.53;2.00;;;7.70;99.90;;;;;;4974433;28;20102;-91
2023/03/20 05:48:07;;;;;;;5.78;2.20;;;7.70;99.90;;;;;;4957240;28;20058;-91
2023/03/20 05:50:33;;;;;;;4.20;2.00;;;7.80;99.90;;;;;;4955698;28;20015;-91
2023/03/20 05:52:59;;;;;;;3.90;2.10;;;7.70;99.90;;;;;;4956602;28;20038;-91
2023/03/20 05:55:25;;;;;;;4.75;1.92;;;7.80;99.90;;;;;;4957999;28;20078;-90
2023/03/20 05:57:51;;;;;;;6.13;2.22;;;7.80;99.90;;;;;;4957804;28;20019;-89
2023/03/20 06:00:17;;;;;;;4.63;1.90;;;7.80;99.90;;;;;;4957979;28;20053;-88
2023/03/20 06:02:43;;;;;;;3.40;1.95;;;7.80;99.90;;;;;;4957913;28;20444;-89
2023/03/20 06:05:09;;;;;;;1.83;1.70;;;7.80;99.90;;;;;;4957038;28;20054;-90
2023/03/20 06:07:34;;;;;;;4.22;2.20;;;7.80;99.90;;;;;;4956963;28;20058;-89
2023/03/20 06:10:00;;;;;;;3.70;2.05;;;7.90;99.90;;;;;;4974329;28;20023;-88
2023/03/20 06:12:26;;;;;;;3.63;2.17;;;7.90;99.90;;;;;;4956924;28;20034;-89
2023/03/20 06:14:51;;;;;;;2.10;1.90;;;7.90;99.90;;;;;;4956690;28;20050;-89
2023/03/20 06:17:17;;;;;;;4.82;2.35;;;7.90;99.90;;;;;;4957149;28;20058;-89
2023/03/20 06:19:42;;;;;;;6.60;2.08;;;7.90;99.90;;;;;;4957061;28;20055;-89
2023/03/20 06:22:08;;;;;;;5.72;2.78;;;8.00;99.90;;;;;;4973733;28;20117;-91
2023/03/20 06:24:34;;;;;;;3.03;2.50;;;8.00;99.90;;;;;;4974207;28;20037;-88
2023/03/20 06:27:00;;;;;;;4.93;2.58;;;8.00;99.90;;;;;;4957062;28;20019;-88
2023/03/20 06:29:27;;;;;;;5.43;2.88;;;8.00;99.90;;;;;;4957001;28;20037;-88
2023/03/20 06:31:53;;;;;;;5.07;3.05;;;8.00;99.90;;;;;;4951805;28;20388;-88
2023/03/20 06:34:19;;;;;;;5.43;2.65;;;8.10;99.90;;;;;;4938969;28;20032;-89
2023/03/20 06:36:45;;;;;;;3.83;2.42;;;8.10;99.90;;;;;;4957193;28;20061;-88
2023/03/20 06:39:10;;;;;;;4.25;2.78;;;8.10;99.90;;;;;;4959344;28;20031;-88
2023/03/20 06:41:36;;;;;;;6.85;2.85;;;8.10;99.90;;;;;;4960808;28;20019;-89
2023/03/20 06:44:02;;;;;;;3.55;2.83;;;8.10;99.90;;;;;;4960638;28;20030;-88
2023/03/20 06:46:28;;;;;;;4.20;2.95;;;8.10;99.90;;;;;;4960512;28;20084;-87
2023/03/20 06:48:54;;;;;;;4.72;3.35;;;8.20;99.90;;;;;;4960360;28;20105;-91
2023/03/20 06:51:20;;;;;;;7.47;3.92;;;8.20;99.90;;;;;;4976456;28;20022;-89
2023/03/20 06:53:47;;;;;;;6.97;3.88;;;8.20;99.90;;;;;;4976772;28;20046;-90
2023/03/20 06:56:12;;;;;;;6.38;3.15;;;8.20;99.90;;;;;;4959612;28;20031;-90
2023/03/20 06:58:38;;;;;;;7.78;3.13;;;8.30;99.90;;;;;;4960305;28;20027;-90
2023/03/20 07:01:16;;;;;;;4.65;2.97;;;8.30;99.90;;;;;;4959631;28;20109;-90
2023/03/20 07:03:42;;;;;;;4.18;2.50;;;8.30;99.90;;;;;;4959680;28;20053;-89
2023/03/20 07:06:08;;;;;;;5.28;3.53;;;8.30;99.90;;;;;;4959925;28;20026;-89
2023/03/20 07:08:37;;;;;;;4.05;2.70;;;8.30;99.90;;;;;;4959823;28;20109;-89
2023/03/20 07:11:03;;;;;;;3.90;2.33;;;8.30;99.90;;;;;;4960092;28;20031;-90
2023/03/20 07:13:31;;;;;;;5.50;2.28;;;8.30;99.90;;;;;;4976752;28;20361;-90
2023/03/20 07:16:00;;;;;;;5.97;2.67;;;8.30;99.90;;;;;;4959777;28;20101;-90
2023/03/20 07:18:25;;;;;;;4.03;2.38;;;8.40;99.90;;;;;;4959969;28;20483;-89
2023/03/20 07:20:51;;;;;;;4.32;2.08;;;8.40;99.90;;;;;;4976654;28;20027;-90
2023/03/20 07:23:18;;;;;;;6.15;2.42;;;8.40;99.90;;;;;;4957662;28;20019;-90
2023/03/20 07:25:46;;;;;;;3.08;2.20;;;8.40;99.90;;;;;;4959658;28;20062;-90
2023/03/20 07:28:12;;;;;;;2.95;1.92;;;8.50;99.90;;;;;;4959677;28;20058;-92
2023/03/20 07:30:37;;;;;;;7.20;1.90;;;8.50;99.90;;;;;;4959558;28;20477;-91
2023/03/20 07:33:03;;;;;;;2.15;1.83;;;8.50;99.90;;;;;;4976850;28;20153;-90
2023/03/20 07:35:29;;;;;;;2.80;1.90;;;8.50;99.90;;;;;;4958925;28;20038;-90
2023/03/20 07:37:54;;;;;;;3.45;1.83;;;8.60;99.90;;;;;;4959282;28;20076;-90
2023/03/20 07:40:20;;;;;;;3.78;1.60;;;8.60;99.90;;;;;;4959678;28;20031;-90
2023/03/20 07:42:49;;;;;;;2.65;1.73;;;8.60;99.90;;;;;;4959487;28;20023;-90
2023/03/20 07:45:17;;;;;;;7.57;2.28;;;8.60;99.90;;;;;;4957507;28;20029;-91
2023/03/20 07:47:43;;;;;;;2.47;1.83;;;8.70;99.90;;;;;;4955793;28;20071;-91
2023/03/20 07:50:09;;;;;;;2.70;1.52;;;8.80;99.90;;;;;;4961609;28;20027;-91
2023/03/20 07:52:35;;;;;;;1.65;1.20;;;8.80;99.90;;;;;;4965822;28;20030;-90
2023/03/20 07:55:01;;;;;;;3.55;1.63;;;8.80;99.90;;;;;;4961262;28;20062;-89
2023/03/20 07:57:26;;;;;;;1.67;1.10;;;8.80;99.90;;;;;;4958445;28;20531;-90
2023/03/20 07:59:52;;;;;;;3.08;1.25;;;8.90;99.90;;;;;;4959054;28;20421;-90
2023/03/20 08:02:18;;;;;;;2.03;1.00;;;8.90;99.90;;;;;;4959104;28;20019;-89
2023/03/20 08:04:45;;;;;;;2.20;1.25;;;8.90;99.90;;;;;;4958833;28;20019;-90
2023/03/20 08:07:11;;;;;;;1.42;1.00;;;8.90;99.90;;;;;;4959685;28;20427;-89
2023/03/20 08:09:37;;;;;;;1.42;0.93;;;9.00;99.90;;;;;;4959325;28;20178;-90
2023/03/20 08:12:03;;;;;;;1.10;0.90;;;9.00;99.90;;;;;;4959596;28;20058;-90
2023/03/20 08:14:29;;;;;;;1.48;0.90;;;9.00;99.90;;;;;;4959380;28;20197;-90
2023/03/20 08:16:55;;;;;;;1.55;1.10;;;9.10;99.90;;;;;;4959808;28;20042;-90
2023/03/20 08:19:20;;;;;;;1.20;1.05;;;9.10;99.90;;;;;;4959751;28;20058;-90
2023/03/20 08:21:47;;;;;;;3.08;1.10;;;9.10;99.90;;;;;;4959734;28;20023;-90
2023/03/20 08:24:12;;;;;;;1.00;0.90;;;9.10;99.90;;;;;;4959715;28;20038;-90
2023/03/20 08:26:38;;;;;;;2.35;0.80;;;9.20;99.90;;;;;;4959878;28;20034;-89
2023/03/20 08:29:04;;;;;;;1.45;1.13;;;9.10;99.90;;;;;;4959546;28;20034;-91
2023/03/20 08:31:30;;;;;;;1.30;0.98;;;9.20;99.90;;;;;;4958854;28;20037;-91
2023/03/20 08:33:56;;;;;;;1.60;0.77;;;9.20;99.90;;;;;;4957461;28;20043;-91
2023/03/20 08:36:22;;;;;;;1.80;0.88;;;9.20;99.90;;;;;;4957735;28;20033;-90
2023/03/20 08:38:49;;;;;;;3.15;0.85;;;9.30;99.90;;;;;;4958480;28;20031;-91
2023/03/20 08:41:15;;;;;;;1.63;0.75;;;9.30;99.90;;;;;;4958820;28;20027;-90
2023/03/20 08:43:41;;;;;;;1.48;0.85;;;9.30;99.90;;;;;;4958462;28;20401;-90
2023/03/20 08:46:07;;;;;;;1.73;1.08;;;9.40;99.90;;;;;;4958611;28;20023;-90
2023/03/20 08:48:33;;;;;;;1.27;0.80;;;9.40;99.90;;;;;;4947474;28;20054;-92
2023/03/20 08:50:59;;;;;;;1.17;0.73;;;9.40;99.90;;;;;;4970547;28;20059;-92
2023/03/20 08:53:26;;;;;;;2.67;1.00;;;9.50;99.90;;;;;;4957770;28;20127;-91
2023/03/20 08:55:52;;;;;;;1.85;0.85;;;9.50;99.90;;;;;;4954821;28;20030;-91
2023/03/20 08:58:19;;;;;;;1.25;0.88;;;9.60;99.90;;;;;;4941936;29;20130;-91
2023/03/20 09:00:45;;;;;;;2.55;1.00;;;9.60;99.90;;;;;;4948588;28;20042;-91
2023/03/20 09:03:16;;;;;;;3.17;1.20;;;9.60;99.90;;;;;;4958885;28;20428;-89
2023/03/20 09:05:45;;;;;;;;;;;9.70;99.90;;;;;;4958874;28;20069;-91
2023/03/20 09:08:12;;;;;;;2.15;1.10;;;9.70;99.90;;;;;;4958607;28;19906;-92
2023/03/20 09:10:37;;;;;;;2.90;1.23;;;9.70;99.90;;;;;;4958954;28;20030;-92
2023/03/20 09:13:03;;;;;;;2.45;1.70;;;9.80;99.90;;;;;;4958773;28;20042;-91
2023/03/20 09:15:29;;;;;;;2.53;1.65;;;9.80;99.90;;;;;;4958475;28;20054;-92
2023/03/20 09:17:55;;;;;;;2.13;1.08;;;9.80;99.90;;;;;;4975875;28;20121;-91
2023/03/20 09:20:21;;;;;;;6.30;2.92;;;9.90;99.90;;;;;;4958440;28;20058;-91
2023/03/20 09:22:47;;;;;;;4.22;2.50;;;9.90;99.90;;;;;;4958037;28;20097;-91
2023/03/20 09:25:12;;;;;;;4.10;1.88;;;9.90;99.90;;;;;;4958385;28;20027;-92
2023/03/20 09:27:39;;;;;;;1.85;1.20;;;10.00;99.90;;;;;;4958438;28;20027;-92
2023/03/20 09:30:06;;;;;;;4.05;1.70;;;10.10;99.90;;;;;;4958304;28;20117;-91
2023/03/20 09:32:33;;;;;;;2.55;1.85;;;10.10;99.90;;;;;;4957084;28;20038;-93
2023/03/20 09:35:00;;;;;;;2.13;1.50;;;10.10;99.90;;;;;;4957549;28;20049;-92
2023/03/20 09:37:26;;;;;;;3.47;1.95;;;10.20;99.90;;;;;;4957337;28;20110;-92
2023/03/20 09:39:52;;;;;;;2.33;1.52;;;10.20;99.90;;;;;;4957310;28;20039;-90
2023/03/20 09:42:26;;;;;;;2.22;1.90;;;10.30;99.90;;;;;;4957928;28;20091;-92
2023/03/20 09:44:56;;;;;;;3.65;1.77;;;10.30;99.90;;;;;;4957266;28;20023;-92
2023/03/20 09:47:31;;;;;;;1.42;1.20;;;10.40;99.90;;;;;;4957499;28;20049;-91
2023/03/20 09:50:12;;;;;;;2.33;1.50;;;10.50;99.90;;;;;;4957349;28;20062;-89
2023/03/20 09:52:52;;;;;;;2.17;1.52;;;10.50;99.90;;;;;;4957288;28;20041;-90
2023/03/20 09:55:22;;;;;;;1.50;1.40;;;10.60;99.90;;;;;;4959958;28;20484;-91
2023/03/20 09:57:58;;;;;;;1.77;1.35;;;10.70;99.90;;;;;;4959936;28;20041;-91
2023/03/20 10:00:27;;;;;;;2.63;1.60;;;10.70;99.90;;;;;;4957669;28;20491;-92
2023/03/20 10:03:06;;;;;;;3.13;1.30;;;10.70;99.90;;;;;;4957821;28;20031;-91
2023/03/20 10:05:41;;;;;;;2.88;1.40;;;10.80;99.90;;;;;;4957584;28;20109;-92
2023/03/20 10:08:15;;;;;;;2.63;2.42;;;10.80;99.90;;;;;;4957313;28;20023;-92
2023/03/20 10:11:15;;;;;;;4.15;2.05;;;10.70;99.90;;;;;;4957055;28;20046;-90
2023/03/20 10:13:54;;;;;;;2.88;2.08;;;10.70;99.90;;;;;;4958723;28;20046;-91
2023/03/20 10:16:41;;;;;;;5.30;1.67;;;10.70;99.90;;;;;;4961349;28;20488;-91
2023/03/20 10:19:14;;;;;;;2.38;1.60;;;10.70;99.90;;;;;;4961654;28;20033;-91
2023/03/20 10:21:44;;;;;;;1.95;1.55;;;10.70;99.90;;;;;;4962046;28;20109;-91
2023/03/20 10:24:18;;;;;;;2.27;2.00;;;10.70;99.90;;;;;;4960518;28;20042;-92
2023/03/20 10:26:48;;;;;;;1.95;1.75;;;10.70;99.90;;;;;;4962834;28;20771;-91
2023/03/20 10:29:46;;;;;;;2.67;1.92;;;10.70;99.90;;;;;;4960369;28;20030;-93
2023/03/20 10:32:37;;;;;;;2.28;2.00;;;10.80;99.90;;;;;;4958572;28;20043;-93
2023/03/20 10:35:42;;;;;;;3.25;2.35;;;10.80;99.90;;;;;;4948401;29;20047;-92
2023/03/20 10:38:25;;;;;;;3.00;2.33;;;10.90;99.90;;;;;;4957068;28;20035;-92
2023/03/20 10:40:53;;;;;;;3.08;2.67;;;10.90;99.90;;;;;;4957740;28;20045;-92
2023/03/20 10:43:35;;;;;;;2.75;2.08;;;11.00;99.90;;;;;;4972687;28;20019;-92
2023/03/20 10:46:12;;;;;;;1.92;1.67;;;11.10;99.90;;;;;;4961288;28;20034;-92
2023/03/20 10:48:43;;;;;;;3.50;1.88;;;11.20;99.90;;;;;;4959422;28;20015;-92
2023/03/20 10:51:22;;;;;;;2.10;1.98;;;11.20;99.90;;;;;;4960833;28;20125;-92
2023/03/20 10:54:04;;;;;;;2.50;2.13;;;11.30;99.90;;;;;;4960758;28;20109;-92
2023/03/20 10:56:58;;;;;;;1.90;1.70;;;11.40;99.90;;;;;;4958059;28;20037;-92
2023/03/20 10:59:39;;;;;;;3.90;1.60;;;11.60;99.90;;;;;;4957369;28;20035;-89
2023/03/20 11:02:08;;;;;;;;;;;11.70;99.90;;;;;;4959654;28;20035;-89
2023/03/20 11:04:34;;;;;;;2.05;1.52;;;11.80;99.90;;;;;;4963623;28;19921;-89
2023/03/20 11:07:11;;;;;;;2.30;1.55;;;12.00;99.90;;;;;;4974117;28;20019;-92
2023/03/20 11:09:38;;;;;;;1.85;1.40;;;12.10;99.90;;;;;;4988529;28;20027;-95
2023/03/20 11:12:18;;;;;;;2.53;1.77;;;12.20;99.90;;;;;;4974643;28;20027;-95
2023/03/20 11:14:44;;;;;;;1.48;1.10;;;12.20;99.90;;;;;;4975397;28;20038;-95
2023/03/20 11:17:13;;;;;;;1.73;1.40;;;12.20;99.90;;;;;;4965494;28;20027;-94
2023/03/20 11:19:41;;;;;;;1.60;1.50;;;12.20;99.90;;;;;;4974999;28;20074;-95
2023/03/20 11:22:25;;;;;;;2.60;1.70;;;12.20;99.90;;;;;;4974285;28;20074;-95
2023/03/20 11:24:53;;;;;;;2.25;1.30;;;12.20;99.90;;;;;;4969122;28;20042;-95
2023/03/20 11:27:25;;;;;;;1.30;1.20;;;12.20;99.90;;;;;;4977937;28;20130;-95
2023/03/20 11:29:53;;;;;;;1.40;1.20;;;12.20;99.90;;;;;;4974799;28;20146;-96
2023/03/20 11:32:39;;;;;;;2.10;1.08;;;12.30;99.90;;;;;;4976145;28;20018;-96
2023/03/20 11:35:32;;;;;;;1.58;1.40;;;12.30;99.90;;;;;;4977561;28;20115;-95
2023/03/20 11:38:20;;;;;;;2.58;1.38;;;12.40;99.90;;;;;;4981752;28;20065;-96
2023/03/20 11:40:47;;;;;;;2.17;1.65;;;12.40;99.90;;;;;;4982133;28;20002;-96
2023/03/20 11:43:25;;;;;;;3.35;1.60;;;12.50;99.90;;;;;;4982865;28;20037;-96
2023/03/20 11:46:00;;;;;;;2.28;1.67;;;12.50;99.90;;;;;;4980026;28;20038;-96
2023/03/20 11:48:37;;;;;;;2.63;1.60;;;12.60;99.90;;;;;;4982118;28;20035;-95
2023/03/20 11:51:09;;;;;;;2.22;1.33;;;12.70;99.90;;;;;;4982164;28;20027;-94
2023/03/20 11:53:42;;;;;;;1.98;1.42;;;12.70;99.90;;;;;;4973402;28;20051;-95
2023/03/20 11:56:10;;;;;;;1.40;1.30;;;12.80;99.90;;;;;;4973748;28;20046;-96
2023/03/20 11:59:19;;;;;;;2.22;1.27;;;12.90;99.90;;;;;;4974838;28;20022;-95
2023/03/20 12:01:50;;;;;;;2.10;1.50;;;13.00;99.90;;;;;;4952760;28;20035;-94
2023/03/20 12:04:28;;;;;;;2.92;1.20;;;13.20;99.90;;;;;;4979589;28;20035;-95
2023/03/20 12:06:59;;;;;;;1.63;0.90;;;13.30;99.90;;;;;;4980548;28;20050;-95
2023/03/20 12:09:43;;;;;;;4.53;1.00;;;13.40;99.90;;;;;;4982221;28;20022;-96
2023/03/20 12:12:19;;;;;;;1.67;0.90;;;13.40;99.90;;;;;;4999162;28;20019;-94
2023/03/20 12:14:54;;;;;;;2.92;0.70;;;13.40;99.90;;;;;;4981937;28;20050;-95
2023/03/20 12:17:39;;;;;;;0.85;0.75;;;13.30;99.90;;;;;;4981122;28;20034;-94
2023/03/20 12:20:20;;;;;;;1.65;0.95;;;13.30;99.90;;;;;;4981562;28;20031;-95
2023/03/20 12:23:04;;;;;;;7.20;1.00;;;13.30;99.90;;;;;;4982711;28;20039;-95
2023/03/20 12:25:40;;;;;;;1.85;0.70;;;13.30;99.90;;;;;;4980699;28;20019;-95
2023/03/20 12:28:31;;;;;;;1.33;0.70;;;13.30;99.90;;;;;;4982114;28;20038;-95
2023/03/20 12:31:20;;;;;;;1.50;0.40;;;13.40;99.90;;;;;;4981088;28;20038;-95
2023/03/20 12:33:51;;;;;;;0.90;0.50;;;13.30;99.90;;;;;;4979853;28;20085;-96
2023/03/20 12:36:30;;;;;;;1.75;0.50;;;13.30;99.90;;;;;;4979431;28;20030;-95
2023/03/20 12:38:56;;;;;;;4.55;0.88;;;13.30;99.90;;;;;;4974931;28;20027;-91
2023/03/20 12:41:27;;;;;;;1.40;0.60;;;13.20;99.90;;;;;;4957669;28;20053;-90
2023/03/20 12:44:18;;;;;;;3.55;0.60;;;13.30;99.90;;;;;;4957114;28;20030;-90
2023/03/20 12:47:02;;;;;;;;;;;13.30;99.90;;;;;;4953574;28;20050;-91
2023/03/20 12:49:35;;;;;;;4.93;0.88;;;13.40;99.90;;;;;;4962553;28;19906;-90
2023/03/20 12:52:29;;;;;;;4.45;0.80;;;13.40;99.90;;;;;;4962015;28;20135;-91
2023/03/20 12:55:13;;;;;;;1.75;0.47;;;13.30;99.90;;;;;;4961846;28;20528;-91
2023/03/20 12:58:13;;;;;;;3.45;0.45;;;13.30;99.90;;;;;;4963965;28;20508;-91
2023/03/20 13:00:48;;;;;;;0.55;0.30;;;13.40;99.90;;;;;;4959417;28;20109;-91
2023/03/20 13:03:26;;;;;;;0.95;0.50;;;13.50;99.90;;;;;;4968520;28;20415;-91
2023/03/20 13:05:57;;;;;;;1.95;0.50;;;13.70;99.90;;;;;;4964476;28;20023;-90
2023/03/20 13:08:31;;;;;;;2.85;0.60;;;14.10;99.90;;;;;;4968449;28;20030;-90
2023/03/20 13:11:21;;;;;;;1.65;0.20;;;14.20;99.90;;;;;;4969006;28;20121;-91
2023/03/20 13:14:04;;;;;;;0.50;0.40;;;14.20;99.90;;;;;;4956778;28;20063;-90
2023/03/20 13:16:49;;;;;;;2.90;0.60;;;14.30;99.90;;;;;;4964337;28;20055;-90
2023/03/20 13:19:21;;;;;;;1.73;0.45;;;14.20;99.90;;;;;;4983031;28;20046;-89